Terminal Aerodrome Forecast
Issued by NWS Grand Forks, ND

Home | Current Version | Previous Version | Text Only | Print | Product List | Glossary Off
Versions: 1 2 3 4 5 6 7 8 9 10 11 12 13 14

907
FTUS43 KFGF 250520
TAFGFK
TAF
KGFK 250520Z 2506/2606 24009KT P6SM SCT100 SCT250
     FM251100 30012KT P6SM OVC020
     FM252000 32011KT P6SM BKN050
     FM252100 32010KT P6SM SCT045
     FM260100 30006KT P6SM FEW250=

USA.gov is the U.S. government's official web portal to all federal, state and local government web resources and services.